Time;durP1;ratioP1;P1;durP2;ratioP2;P2;SDS_P1;SDS_P2;PMS_P1;PMS_P2;Temp;Humidity;BMP_temperature;BMP_pressure;BME280_temperature;BME280_humidity;BME280_pressure;Samples;Min_cycle;Max_cycle;Signal;HPM_P1;HPM_P2
2023/05/14 00:00:23;;;;;;;4.63;3.43;;;17.70;99.90;;;;;;5053743;28;20177;-59
2023/05/14 00:02:49;;;;;;;9.40;3.93;;;17.60;99.90;;;;;;5052595;28;20445;-60
2023/05/14 00:05:14;;;;;;;4.70;3.77;;;17.60;99.90;;;;;;5052628;28;20207;-60
2023/05/14 00:07:40;;;;;;;5.43;3.67;;;17.50;99.90;;;;;;5052252;28;20207;-60
2023/05/14 00:10:06;;;;;;;4.27;3.40;;;17.60;99.90;;;;;;5052233;28;20177;-59
2023/05/14 00:12:44;;;;;;;6.13;3.40;;;17.50;99.90;;;;;;5052324;28;20672;-59
2023/05/14 00:15:09;;;;;;;5.57;3.63;;;17.40;99.90;;;;;;5052712;28;20185;-60
2023/05/14 00:17:36;;;;;;;5.17;3.60;;;17.40;99.90;;;;;;5055496;28;20255;-60
2023/05/14 00:20:02;;;;;;;5.37;3.60;;;17.40;99.90;;;;;;5054612;28;20173;-59
2023/05/14 00:22:28;;;;;;;4.90;3.13;;;17.30;99.90;;;;;;5054213;28;20573;-60
2023/05/14 00:24:54;;;;;;;5.00;3.63;;;17.30;99.90;;;;;;5054437;28;20292;-59
2023/05/14 00:27:19;;;;;;;9.60;3.70;;;17.30;99.90;;;;;;5053490;28;20260;-60
2023/05/14 00:29:46;;;;;;;7.83;4.40;;;17.30;99.90;;;;;;5054419;28;20212;-59
2023/05/14 00:32:12;;;;;;;3.60;3.10;;;17.20;99.90;;;;;;5053150;28;20174;-60
2023/05/14 00:34:37;;;;;;;5.93;3.73;;;17.20;99.90;;;;;;5053571;28;20247;-60
2023/05/14 00:37:03;;;;;;;5.47;4.07;;;17.10;99.90;;;;;;5053613;28;20169;-59
2023/05/14 00:39:29;;;;;;;7.13;3.77;;;17.10;99.90;;;;;;5053654;28;20176;-63
2023/05/14 00:41:54;;;;;;;5.40;3.80;;;17.00;99.90;;;;;;5052729;28;20261;-60
2023/05/14 00:44:22;;;;;;;6.17;3.67;;;16.90;99.90;;;;;;5053930;28;20569;-60
2023/05/14 00:46:48;;;;;;;4.70;4.03;;;16.90;99.90;;;;;;5053748;28;20173;-60
2023/05/14 00:49:14;;;;;;;7.17;3.73;;;16.90;99.90;;;;;;5051735;28;20226;-61
2023/05/14 00:51:41;;;;;;;6.73;3.80;;;16.90;99.90;;;;;;5062234;28;20180;-60
2023/05/14 00:54:07;;;;;;;4.03;3.57;;;16.90;99.90;;;;;;5065129;28;20313;-60
2023/05/14 00:56:34;;;;;;;6.67;4.10;;;16.90;99.90;;;;;;5065864;28;20168;-60
2023/05/14 00:59:00;;;;;;;8.13;4.40;;;16.80;99.90;;;;;;5065409;28;20567;-60
2023/05/14 01:01:27;;;;;;;4.40;3.67;;;16.80;99.90;;;;;;5066109;28;20169;-60
2023/05/14 01:03:56;;;;;;;6.23;3.80;;;16.70;99.90;;;;;;5066218;28;20267;-59
2023/05/14 01:06:37;;;;;;;9.50;4.40;;;16.70;99.90;;;;;;5071978;28;20428;-60
2023/05/14 01:09:40;;;;;;;5.03;4.00;;;16.60;99.90;;;;;;5071340;28;20168;-59
2023/05/14 01:12:27;;;;;;;5.97;4.23;;;16.60;99.90;;;;;;5073357;28;20249;-61
2023/05/14 01:15:01;;;;;;;3.93;3.53;;;16.60;99.90;;;;;;5071543;28;20173;-60
2023/05/14 01:17:29;;;;;;;5.33;3.97;;;16.50;99.90;;;;;;5073570;28;20471;-60
2023/05/14 01:19:55;;;;;;;6.70;4.00;;;16.50;99.90;;;;;;5072929;28;20176;-60
2023/05/14 01:22:21;;;;;;;5.43;4.00;;;16.50;99.90;;;;;;5075456;28;20249;-60
2023/05/14 01:24:46;;;;;;;5.27;3.33;;;16.50;99.90;;;;;;5077137;28;20200;-60
2023/05/14 01:27:51;;;;;;;5.83;3.77;;;16.50;99.90;;;;;;5077411;28;20256;-60
2023/05/14 01:30:30;;;;;;;3.87;3.37;;;16.40;99.90;;;;;;5078409;28;20165;-60
2023/05/14 01:33:01;;;;;;;6.80;3.30;;;16.50;99.90;;;;;;5077873;28;20177;-60
2023/05/14 01:35:29;;;;;;;6.10;3.10;;;16.40;99.90;;;;;;5078392;28;20169;-60
2023/05/14 01:37:58;;;;;;;5.00;3.50;;;16.40;99.90;;;;;;5077891;28;20238;-58
2023/05/14 01:40:24;;;;;;;5.07;3.60;;;16.50;99.90;;;;;;5078073;28;20181;-61
2023/05/14 01:42:51;;;;;;;4.03;3.63;;;16.50;99.90;;;;;;5077611;28;20679;-61
2023/05/14 01:45:20;;;;;;;4.83;3.30;;;16.40;99.90;;;;;;5078007;28;20212;-60
2023/05/14 01:47:45;;;;;;;4.07;3.40;;;16.40;99.90;;;;;;5076758;28;20233;-60
2023/05/14 01:50:11;;;;;;;5.53;3.67;;;16.40;99.90;;;;;;5076210;28;20172;-60
2023/05/14 01:52:38;;;;;;;3.93;3.23;;;16.40;99.90;;;;;;5077024;28;20342;-60
2023/05/14 01:55:04;;;;;;;9.17;3.90;;;16.30;99.90;;;;;;5077153;28;20655;-60
2023/05/14 01:57:30;;;;;;;8.93;3.70;;;16.30;99.90;;;;;;5077096;28;20267;-60
2023/05/14 01:59:55;;;;;;;5.33;3.47;;;16.20;99.90;;;;;;5076883;28;20263;-60
2023/05/14 02:02:21;;;;;;;7.20;4.10;;;16.20;99.90;;;;;;5076277;28;20177;-60
2023/05/14 02:04:47;;;;;;;4.23;3.83;;;16.10;99.90;;;;;;5075991;28;20591;-60
2023/05/14 02:07:12;;;;;;;5.00;3.47;;;16.20;99.90;;;;;;5076650;28;20274;-60
2023/05/14 02:09:39;;;;;;;5.30;3.60;;;16.10;99.90;;;;;;5076115;28;20173;-60
2023/05/14 02:12:25;;;;;;;4.03;3.50;;;16.10;99.90;;;;;;5076611;28;20169;-60
2023/05/14 02:14:50;;;;;;;6.37;3.50;;;16.10;99.90;;;;;;5076219;28;20456;-62
2023/05/14 02:17:16;;;;;;;5.37;3.50;;;16.10;99.90;;;;;;5073498;28;20556;-60
2023/05/14 02:19:43;;;;;;;11.70;3.93;;;16.10;99.90;;;;;;5072442;28;20618;-60
2023/05/14 02:22:08;;;;;;;4.07;3.37;;;16.00;99.90;;;;;;5074773;28;20169;-60
2023/05/14 02:24:34;;;;;;;4.87;3.50;;;16.00;99.90;;;;;;5076825;28;20185;-60
2023/05/14 02:26:59;;;;;;;4.47;3.73;;;15.90;99.90;;;;;;5075139;28;20188;-60
2023/05/14 02:29:26;;;;;;;4.73;3.77;;;15.90;99.90;;;;;;5076704;28;20161;-60
2023/05/14 02:31:51;;;;;;;3.97;3.57;;;15.90;99.90;;;;;;5075893;28;20172;-60
2023/05/14 02:34:18;;;;;;;4.57;3.60;;;15.90;99.90;;;;;;5075305;28;20177;-60
2023/05/14 02:36:47;;;;;;;8.43;3.60;;;15.90;99.90;;;;;;5076287;28;20176;-60
2023/05/14 02:39:12;;;;;;;8.87;3.90;;;15.90;99.90;;;;;;5076071;28;20183;-59
2023/05/14 02:41:38;;;;;;;5.23;4.10;;;15.90;99.90;;;;;;5075961;28;20315;-59
2023/05/14 02:44:04;;;;;;;5.77;3.40;;;15.80;99.90;;;;;;5076855;28;20201;-60
2023/05/14 02:46:32;;;;;;;4.43;3.60;;;15.80;99.90;;;;;;5076281;28;20557;-60
2023/05/14 02:48:58;;;;;;;4.93;3.50;;;15.80;99.90;;;;;;5075520;28;20231;-60
2023/05/14 02:51:23;;;;;;;5.30;3.67;;;15.70;99.90;;;;;;5076286;28;20165;-60
2023/05/14 02:53:49;;;;;;;7.33;4.00;;;15.60;99.90;;;;;;5075458;28;20165;-60
2023/05/14 02:56:15;;;;;;;4.97;3.60;;;15.60;99.90;;;;;;5074853;28;20173;-59
2023/05/14 02:58:40;;;;;;;6.40;3.33;;;15.50;99.90;;;;;;5076607;28;20169;-61
2023/05/14 03:01:07;;;;;;;6.73;3.73;;;15.50;99.90;;;;;;5074775;28;20187;-60
2023/05/14 03:03:34;;;;;;;4.13;3.73;;;15.50;99.90;;;;;;5075361;28;20241;-58
2023/05/14 03:06:37;;;;;;;6.10;3.83;;;15.50;99.90;;;;;;5076294;28;20214;-58
2023/05/14 03:09:03;;;;;;;4.17;3.77;;;15.50;99.90;;;;;;5075261;28;20165;-60
2023/05/14 03:11:28;;;;;;;4.07;3.33;;;15.40;99.90;;;;;;5074833;28;20169;-58
2023/05/14 03:13:54;;;;;;;4.17;3.77;;;15.40;99.90;;;;;;5074673;28;20337;-59
2023/05/14 03:16:19;;;;;;;4.50;3.80;;;15.30;99.90;;;;;;5074655;28;20176;-60
2023/05/14 03:18:45;;;;;;;6.13;3.90;;;15.20;99.90;;;;;;5074709;28;20267;-59
2023/05/14 03:21:10;;;;;;;7.30;3.87;;;15.20;99.90;;;;;;5074118;28;20168;-60
2023/05/14 03:23:42;;;;;;;7.77;4.03;;;15.10;99.90;;;;;;5074681;28;20255;-59
2023/05/14 03:26:08;;;;;;;4.27;3.87;;;15.10;99.90;;;;;;5075348;28;20208;-60
2023/05/14 03:28:33;;;;;;;6.13;4.37;;;15.00;99.90;;;;;;5072890;28;20195;-58
2023/05/14 03:30:59;;;;;;;4.63;3.90;;;15.00;99.90;;;;;;5074386;28;20175;-60
2023/05/14 03:33:25;;;;;;;3.67;3.33;;;14.90;99.90;;;;;;5074043;28;20265;-60
2023/05/14 03:35:53;;;;;;;6.03;4.10;;;14.90;99.90;;;;;;5073720;28;20227;-60
2023/05/14 03:38:18;;;;;;;4.87;3.83;;;14.80;99.90;;;;;;5074639;28;20176;-60
2023/05/14 03:40:44;;;;;;;6.10;4.10;;;14.80;99.90;;;;;;5074572;28;20176;-60
2023/05/14 03:43:10;;;;;;;6.13;3.80;;;14.80;99.90;;;;;;5075488;28;20177;-60
2023/05/14 03:45:36;;;;;;;5.80;4.23;;;14.70;99.90;;;;;;5074817;28;20208;-60
2023/05/14 03:48:02;;;;;;;7.73;4.03;;;14.70;99.90;;;;;;5075258;28;20212;-59
2023/05/14 03:50:27;;;;;;;6.20;4.30;;;14.70;99.90;;;;;;5075129;28;20238;-59
2023/05/14 03:52:53;;;;;;;5.13;3.97;;;14.60;99.90;;;;;;5075365;28;20268;-60
2023/05/14 03:55:19;;;;;;;6.50;4.33;;;14.60;99.90;;;;;;5074757;28;20169;-58
2023/05/14 03:57:46;;;;;;;6.33;4.27;;;14.70;99.90;;;;;;5074978;28;20242;-59
2023/05/14 04:00:12;;;;;;;4.50;4.10;;;14.60;99.90;;;;;;5074622;28;20554;-59
2023/05/14 04:02:38;;;;;;;7.10;3.93;;;14.70;99.90;;;;;;5074950;28;20759;-59
2023/05/14 04:05:03;;;;;;;5.10;4.20;;;14.70;99.90;;;;;;5074622;28;20223;-58
2023/05/14 04:07:29;;;;;;;7.03;3.43;;;14.60;99.90;;;;;;5074712;28;20165;-59
2023/05/14 04:09:54;;;;;;;6.60;4.73;;;14.60;99.90;;;;;;5073546;28;20164;-59
2023/05/14 04:12:20;;;;;;;7.97;4.53;;;14.60;99.90;;;;;;5073406;28;20164;-59
2023/05/14 04:14:46;;;;;;;5.27;4.00;;;14.50;99.90;;;;;;5073444;28;20268;-59
2023/05/14 04:17:11;;;;;;;6.10;4.70;;;14.60;99.90;;;;;;5073255;28;20545;-60
2023/05/14 04:19:38;;;;;;;6.03;4.40;;;14.60;99.90;;;;;;5073577;28;20630;-57
2023/05/14 04:22:04;;;;;;;5.43;3.83;;;14.50;99.90;;;;;;5071858;28;20172;-58
2023/05/14 04:24:29;;;;;;;4.50;3.67;;;14.60;99.90;;;;;;5071921;28;20207;-60
2023/05/14 04:26:55;;;;;;;9.30;4.67;;;14.60;99.90;;;;;;5072077;28;20180;-60
2023/05/14 04:29:20;;;;;;;4.73;3.87;;;14.60;99.90;;;;;;5071611;28;20169;-60
2023/05/14 04:31:48;;;;;;;6.20;4.67;;;14.60;99.90;;;;;;5071780;28;20161;-60
2023/05/14 04:34:14;;;;;;;5.13;4.40;;;14.60;99.90;;;;;;5071748;28;20223;-60
2023/05/14 04:36:40;;;;;;;5.67;4.03;;;14.60;99.90;;;;;;5072056;28;20229;-60
2023/05/14 04:39:06;;;;;;;4.10;3.70;;;14.60;99.90;;;;;;5072832;28;20165;-60
2023/05/14 04:41:31;;;;;;;6.47;3.83;;;14.70;99.90;;;;;;5077119;28;20228;-60
2023/05/14 04:43:59;;;;;;;9.37;3.90;;;14.70;99.90;;;;;;5076276;28;20179;-59
2023/05/14 04:46:25;;;;;;;5.97;4.20;;;14.70;99.90;;;;;;5076235;28;20215;-60
2023/05/14 04:48:51;;;;;;;6.70;4.03;;;14.70;99.90;;;;;;5076551;28;20177;-59
2023/05/14 04:51:16;;;;;;;7.30;3.70;;;14.70;99.90;;;;;;5075010;28;20164;-60
2023/05/14 04:53:42;;;;;;;4.50;3.97;;;14.70;99.90;;;;;;5075761;28;20175;-60
2023/05/14 04:56:07;;;;;;;4.83;4.30;;;14.70;99.90;;;;;;5076373;28;20164;-60
2023/05/14 04:58:33;;;;;;;6.70;4.27;;;14.70;99.90;;;;;;5075197;28;20271;-60
2023/05/14 05:00:59;;;;;;;6.67;4.20;;;14.70;99.90;;;;;;5073726;28;20321;-59
2023/05/14 05:03:24;;;;;;;6.90;4.93;;;14.70;99.90;;;;;;5074706;28;20229;-58
2023/05/14 05:05:50;;;;;;;4.70;3.73;;;14.70;99.90;;;;;;5074945;28;20295;-60
2023/05/14 05:08:16;;;;;;;6.50;4.53;;;14.70;99.90;;;;;;5074901;28;20930;-60
2023/05/14 05:10:41;;;;;;;5.43;4.70;;;14.70;99.90;;;;;;5075453;28;20165;-60
2023/05/14 05:13:07;;;;;;;6.40;4.40;;;14.70;99.90;;;;;;5076410;28;20253;-60
2023/05/14 05:15:33;;;;;;;5.40;4.37;;;14.70;99.90;;;;;;5076678;28;20180;-60
2023/05/14 05:17:59;;;;;;;5.97;4.10;;;14.70;99.90;;;;;;5076881;28;20176;-60
2023/05/14 05:20:24;;;;;;;6.50;4.80;;;14.60;99.90;;;;;;5077343;28;20176;-58
2023/05/14 05:22:50;;;;;;;6.13;4.30;;;14.70;99.90;;;;;;5076227;28;20176;-57
2023/05/14 05:25:15;;;;;;;5.00;4.50;;;14.70;99.90;;;;;;5076335;28;20193;-60
2023/05/14 05:27:41;;;;;;;5.97;4.10;;;14.70;99.90;;;;;;5076653;28;20157;-60
2023/05/14 05:30:07;;;;;;;6.53;4.63;;;14.70;99.90;;;;;;5076072;28;20160;-61
2023/05/14 05:32:33;;;;;;;4.80;4.30;;;14.80;99.90;;;;;;5077115;28;20173;-58
2023/05/14 05:34:59;;;;;;;5.63;4.13;;;14.80;99.90;;;;;;5074395;28;20514;-59
2023/05/14 05:37:26;;;;;;;9.80;3.93;;;14.80;99.90;;;;;;5076409;28;20242;-60
2023/05/14 05:39:52;;;;;;;6.93;4.27;;;14.90;99.90;;;;;;5088271;28;20260;-59
2023/05/14 05:42:18;;;;;;;5.17;3.97;;;14.90;99.90;;;;;;5076135;28;20255;-58
2023/05/14 05:45:18;;;;;;;6.57;4.47;;;14.90;99.90;;;;;;5095994;28;20236;-60
2023/05/14 05:47:44;;;;;;;6.23;4.03;;;14.90;99.90;;;;;;5078034;28;20682;-60
2023/05/14 05:50:11;;;;;;;6.60;4.60;;;15.00;99.90;;;;;;5096475;28;20866;-60
2023/05/14 05:52:36;;;;;;;4.87;4.27;;;15.00;99.90;;;;;;5095104;28;20160;-58
2023/05/14 05:55:02;;;;;;;5.33;3.80;;;15.00;99.90;;;;;;5096052;28;20167;-59
2023/05/14 05:57:28;;;;;;;4.40;3.50;;;15.00;99.90;;;;;;5096556;28;20156;-60
2023/05/14 05:59:53;;;;;;;3.73;3.27;;;15.10;99.90;;;;;;5095097;28;20176;-60
2023/05/14 06:02:19;;;;;;;4.23;3.83;;;15.10;99.90;;;;;;5095371;28;20179;-60
2023/05/14 06:04:45;;;;;;;5.33;3.83;;;15.10;99.90;;;;;;5095023;28;20188;-60
2023/05/14 06:07:11;;;;;;;4.00;3.60;;;15.20;99.90;;;;;;5076639;28;20242;-60
2023/05/14 06:09:36;;;;;;;5.43;3.27;;;15.20;99.90;;;;;;5074929;28;20463;-60
2023/05/14 06:12:02;;;;;;;4.63;3.90;;;15.20;99.90;;;;;;5073049;28;20242;-58
2023/05/14 06:14:28;;;;;;;6.03;3.13;;;15.30;99.90;;;;;;5073703;28;20232;-60
2023/05/14 06:16:53;;;;;;;3.83;3.53;;;15.30;99.90;;;;;;5073853;28;20176;-60
2023/05/14 06:19:19;;;;;;;4.30;3.90;;;15.30;99.90;;;;;;5072637;28;20458;-60
2023/05/14 06:21:44;;;;;;;4.63;3.80;;;15.30;99.90;;;;;;5069615;28;20168;-60
2023/05/14 06:24:10;;;;;;;4.50;2.93;;;15.40;99.90;;;;;;5067794;28;20168;-59
2023/05/14 06:26:35;;;;;;;4.27;3.13;;;15.40;99.90;;;;;;5051399;28;20249;-60
2023/05/14 06:29:01;;;;;;;4.10;3.70;;;15.40;99.90;;;;;;5068306;28;20420;-60
2023/05/14 06:31:27;;;;;;;6.37;4.10;;;15.50;99.90;;;;;;5067445;28;20179;-60
2023/05/14 06:33:52;;;;;;;3.87;3.57;;;15.50;99.90;;;;;;5067097;28;20180;-60
2023/05/14 06:36:18;;;;;;;4.20;3.30;;;15.50;99.90;;;;;;5066577;28;20176;-60
2023/05/14 06:38:43;;;;;;;4.20;3.33;;;15.60;99.90;;;;;;5065659;28;20553;-60
2023/05/14 06:41:09;;;;;;;6.80;3.33;;;15.60;99.90;;;;;;5062087;28;20228;-60
2023/05/14 06:43:34;;;;;;;4.30;3.23;;;15.60;99.90;;;;;;5059659;28;20172;-60
2023/05/14 06:46:00;;;;;;;4.40;3.10;;;15.60;99.90;;;;;;5060435;28;20203;-60
2023/05/14 06:48:28;;;;;;;3.57;2.97;;;15.70;99.90;;;;;;5062142;28;20171;-60
2023/05/14 06:50:53;;;;;;;3.50;3.13;;;15.70;99.90;;;;;;5061366;28;20161;-60
2023/05/14 06:53:19;;;;;;;4.30;2.67;;;15.70;99.90;;;;;;5063257;28;20225;-59
2023/05/14 06:55:46;;;;;;;3.33;2.63;;;15.70;99.90;;;;;;5064432;28;20173;-60
2023/05/14 06:58:12;;;;;;;3.07;2.73;;;15.80;99.90;;;;;;5065634;28;20165;-60
2023/05/14 07:00:38;;;;;;;5.93;3.03;;;15.80;99.90;;;;;;5064154;28;20183;-61
2023/05/14 07:03:04;;;;;;;5.17;2.70;;;15.80;99.90;;;;;;5064105;28;20165;-60
2023/05/14 07:05:30;;;;;;;3.70;3.20;;;15.80;99.90;;;;;;5065410;28;20201;-60
2023/05/14 07:07:55;;;;;;;4.63;2.83;;;15.90;99.90;;;;;;5063638;28;20230;-60
2023/05/14 07:10:21;;;;;;;3.00;2.70;;;15.90;99.90;;;;;;5062672;28;20168;-60
2023/05/14 07:12:47;;;;;;;3.67;3.37;;;15.90;99.90;;;;;;5063155;28;20172;-60
2023/05/14 07:15:13;;;;;;;4.30;3.00;;;16.00;99.90;;;;;;5063538;28;20543;-59
2023/05/14 07:17:38;;;;;;;3.67;2.67;;;16.10;99.90;;;;;;5062275;28;20627;-60
2023/05/14 07:20:04;;;;;;;4.13;3.20;;;16.10;99.90;;;;;;5062069;28;20181;-62
2023/05/14 07:22:30;;;;;;;3.67;2.77;;;16.10;99.90;;;;;;5068487;28;20173;-62
2023/05/14 07:24:55;;;;;;;3.23;2.60;;;16.20;99.90;;;;;;5070864;28;20207;-61
2023/05/14 07:27:22;;;;;;;3.07;2.80;;;16.20;99.90;;;;;;5071297;28;20157;-62
2023/05/14 07:29:49;;;;;;;3.10;2.80;;;16.20;99.90;;;;;;5072957;28;20156;-61
2023/05/14 07:32:16;;;;;;;2.77;2.50;;;16.30;99.90;;;;;;5073846;28;20175;-61
2023/05/14 07:34:41;;;;;;;4.77;2.87;;;16.30;99.90;;;;;;5074112;28;20192;-62
2023/05/14 07:37:07;;;;;;;3.93;2.80;;;16.30;99.90;;;;;;5073356;28;20215;-61
2023/05/14 07:39:33;;;;;;;4.47;2.83;;;16.40;99.90;;;;;;5073110;28;20203;-61
2023/05/14 07:42:00;;;;;;;3.97;3.10;;;16.40;99.90;;;;;;5073320;28;20311;-62
2023/05/14 07:44:25;;;;;;;3.33;3.03;;;16.50;99.90;;;;;;5073257;28;20699;-61
2023/05/14 07:46:51;;;;;;;4.07;3.17;;;16.60;99.90;;;;;;5071880;28;20172;-62
2023/05/14 07:49:17;;;;;;;3.20;2.80;;;16.60;99.90;;;;;;5069644;28;20179;-61
2023/05/14 07:51:43;;;;;;;2.90;2.60;;;16.70;99.90;;;;;;5069939;28;20180;-61
2023/05/14 07:54:13;;;;;;;3.57;3.00;;;16.70;99.90;;;;;;5069676;28;20173;-61
2023/05/14 07:56:40;;;;;;;2.93;2.73;;;16.80;99.90;;;;;;5070116;28;20203;-61
2023/05/14 07:59:07;;;;;;;6.27;2.83;;;16.90;99.90;;;;;;5069702;28;20169;-61
2023/05/14 08:01:32;;;;;;;3.40;2.43;;;17.00;99.90;;;;;;5069017;28;20521;-61
2023/05/14 08:03:59;;;;;;;5.90;2.63;;;17.00;99.90;;;;;;5066626;28;20203;-60
2023/05/14 08:06:27;;;;;;;3.17;2.63;;;17.00;99.90;;;;;;5064707;28;20204;-61
2023/05/14 08:08:53;;;;;;;3.13;2.60;;;17.10;99.90;;;;;;5065230;28;20444;-61
2023/05/14 08:11:21;;;;;;;3.63;2.90;;;17.10;99.90;;;;;;5065971;28;20173;-61
2023/05/14 08:13:47;;;;;;;4.37;2.60;;;17.20;99.90;;;;;;5065706;28;20200;-61
2023/05/14 08:16:13;;;;;;;5.73;3.00;;;17.20;99.90;;;;;;5069369;28;20180;-61
2023/05/14 08:18:39;;;;;;;2.77;2.50;;;17.30;99.90;;;;;;5068899;28;20172;-61
2023/05/14 08:21:07;;;;;;;5.77;2.90;;;17.30;99.90;;;;;;5068490;28;20180;-61
2023/05/14 08:23:33;;;;;;;4.07;2.87;;;17.30;99.90;;;;;;5067924;28;20172;-61
2023/05/14 08:26:00;;;;;;;3.37;3.00;;;17.30;99.90;;;;;;5068964;28;20211;-58
2023/05/14 08:28:26;;;;;;;3.23;2.70;;;17.40;99.90;;;;;;5069064;28;20200;-61
2023/05/14 08:30:52;;;;;;;2.47;2.27;;;17.50;99.90;;;;;;5068996;28;20219;-61
2023/05/14 08:33:19;;;;;;;5.13;3.50;;;17.50;99.90;;;;;;5054472;28;20544;-61
2023/05/14 08:36:04;;;;;;;3.93;3.33;;;17.50;99.90;;;;;;5071415;28;20187;-62
2023/05/14 08:38:30;;;;;;;7.53;3.27;;;17.60;99.90;;;;;;5072624;28;20153;-62
2023/05/14 08:40:57;;;;;;;5.13;2.77;;;17.60;99.90;;;;;;5073711;28;20161;-62
2023/05/14 08:43:28;;;;;;;5.00;2.97;;;17.60;99.90;;;;;;5072997;28;20679;-62
2023/05/14 08:45:59;;;;;;;3.63;2.70;;;17.70;99.90;;;;;;5072303;28;20297;-62
2023/05/14 08:48:32;;;;;;;4.30;2.63;;;17.80;99.90;;;;;;5072634;28;20174;-62
2023/05/14 08:51:00;;;;;;;3.23;2.30;;;17.80;99.90;;;;;;5055592;28;20176;-63
2023/05/14 08:53:27;;;;;;;3.23;2.30;;;17.80;99.90;;;;;;5071548;28;20173;-62
2023/05/14 08:55:53;;;;;;;5.23;2.20;;;17.90;99.90;;;;;;5072497;28;20181;-62
2023/05/14 08:58:21;;;;;;;3.30;2.43;;;18.00;99.90;;;;;;5073256;28;20167;-62
2023/05/14 09:00:47;;;;;;;3.17;2.87;;;18.00;99.90;;;;;;5055269;28;20177;-62
2023/05/14 09:03:15;;;;;;;7.17;3.43;;;18.00;99.90;;;;;;5072121;28;20173;-62
2023/05/14 09:05:41;;;;;;;3.90;2.50;;;18.10;99.90;;;;;;5071994;28;20211;-61
2023/05/14 09:08:08;;;;;;;5.83;3.10;;;18.10;99.90;;;;;;5055858;28;20188;-61
2023/05/14 09:10:34;;;;;;;3.10;2.70;;;18.20;99.90;;;;;;5072467;28;20204;-60
2023/05/14 09:12:59;;;;;;;5.73;2.57;;;18.30;99.90;;;;;;5072951;28;20165;-62
2023/05/14 09:15:27;;;;;;;6.40;3.30;;;18.30;99.90;;;;;;5075234;28;20169;-63
2023/05/14 09:17:53;;;;;;;3.13;2.40;;;18.30;99.90;;;;;;5073394;28;20754;-62
2023/05/14 09:20:21;;;;;;;2.70;2.40;;;18.30;99.90;;;;;;5073542;28;20161;-62
2023/05/14 09:22:52;;;;;;;2.80;2.40;;;18.40;99.90;;;;;;5074041;28;20160;-63
2023/05/14 09:25:25;;;;;;;6.23;2.70;;;18.40;99.90;;;;;;5071095;28;20665;-62
2023/05/14 09:27:53;;;;;;;5.33;2.40;;;18.50;99.90;;;;;;5054588;28;20169;-63
2023/05/14 09:30:20;;;;;;;6.00;2.80;;;18.50;99.90;;;;;;5070475;28;20219;-62
2023/05/14 09:32:49;;;;;;;3.07;2.43;;;18.60;99.90;;;;;;5072613;28;20172;-61
2023/05/14 09:35:23;;;;;;;4.23;2.40;;;18.60;99.90;;;;;;5073301;28;20879;-61
2023/05/14 09:37:51;;;;;;;10.40;2.50;;;18.80;99.80;;;;;;5071493;28;20172;-61
2023/05/14 09:40:22;;;;;;;3.60;2.53;;;18.90;97.40;;;;;;5071026;28;20171;-61
2023/05/14 09:42:49;;;;;;;2.90;2.60;;;18.80;98.40;;;;;;5072826;28;20237;-62
2023/05/14 09:45:16;;;;;;;4.93;2.43;;;18.90;97.60;;;;;;5073504;28;20194;-61
2023/05/14 09:47:43;;;;;;;3.87;2.00;;;18.80;98.20;;;;;;5072980;28;20160;-62
2023/05/14 09:50:09;;;;;;;2.67;2.47;;;18.90;98.70;;;;;;5056342;28;20175;-61
2023/05/14 09:52:37;;;;;;;2.53;2.33;;;18.90;99.90;;;;;;5072873;28;20172;-62
2023/05/14 09:55:03;;;;;;;4.23;2.53;;;18.80;99.90;;;;;;5072579;28;20214;-62
2023/05/14 09:57:29;;;;;;;3.13;2.70;;;18.90;99.40;;;;;;5072417;28;20173;-62
2023/05/14 09:59:55;;;;;;;3.13;2.53;;;19.00;99.90;;;;;;5069630;28;20272;-61
2023/05/14 10:02:24;;;;;;;4.50;2.60;;;19.00;99.90;;;;;;5071987;28;20248;-62
2023/05/14 10:04:56;;;;;;;3.37;2.20;;;19.20;95.70;;;;;;5070399;28;20197;-61
2023/05/14 10:07:28;;;;;;;4.57;2.50;;;19.20;95.10;;;;;;5070429;28;20198;-61
2023/05/14 10:10:03;;;;;;;3.47;2.10;;;19.20;94.90;;;;;;5070360;28;20215;-62
2023/05/14 10:12:33;;;;;;;10.70;3.47;;;19.20;95.60;;;;;;5069239;28;20517;-62
2023/05/14 10:15:02;;;;;;;4.53;2.30;;;19.20;94.90;;;;;;5068740;28;20829;-62
2023/05/14 10:17:33;;;;;;;2.50;2.30;;;19.30;94.10;;;;;;5068104;28;20536;-62
2023/05/14 10:20:01;;;;;;;4.33;2.40;;;19.30;95.60;;;;;;5067695;28;20165;-62
2023/05/14 10:22:33;;;;;;;4.73;2.10;;;19.30;94.60;;;;;;5064447;28;20199;-62
2023/05/14 10:25:00;;;;;;;2.50;2.30;;;19.40;94.00;;;;;;5065800;28;20212;-61
2023/05/14 10:27:26;;;;;;;4.20;2.23;;;19.50;95.20;;;;;;5049253;28;20172;-62
2023/05/14 10:29:53;;;;;;;3.57;2.10;;;19.50;95.40;;;;;;5065809;28;20172;-62
2023/05/14 10:32:23;;;;;;;2.60;2.40;;;19.50;96.10;;;;;;5068189;28;20168;-62
2023/05/14 10:34:51;;;;;;;2.70;2.40;;;19.60;97.10;;;;;;5067797;28;20255;-62
2023/05/14 10:37:27;;;;;;;4.30;2.60;;;19.60;99.20;;;;;;5070140;28;20219;-62
2023/05/14 10:40:01;;;;;;;3.43;2.23;;;19.70;95.50;;;;;;5071013;28;20168;-62
2023/05/14 10:42:34;;;;;;;2.30;2.10;;;19.80;94.10;;;;;;5071773;28;20228;-62
2023/05/14 10:45:06;;;;;;;2.67;1.83;;;19.90;94.20;;;;;;5054113;28;20201;-62
2023/05/14 10:47:44;;;;;;;6.40;2.30;;;20.00;93.10;;;;;;5068492;28;20181;-61
2023/05/14 10:50:13;;;;;;;7.43;2.60;;;20.00;93.80;;;;;;5049552;28;20650;-61
2023/05/14 10:52:48;;;;;;;3.27;2.40;;;20.10;94.30;;;;;;5066250;28;20168;-62
2023/05/14 10:55:15;;;;;;;4.57;2.27;;;20.10;97.70;;;;;;5066456;28;20168;-69
2023/05/14 10:57:44;;;;;;;2.47;2.20;;;20.30;98.10;;;;;;5067365;28;20176;-69
2023/05/14 11:00:12;;;;;;;3.97;2.93;;;20.30;94.20;;;;;;5050597;28;20173;-69
2023/05/14 11:02:45;;;;;;;4.40;2.60;;;20.40;92.10;;;;;;5051704;28;20784;-69
2023/05/14 11:05:15;;;;;;;2.50;1.97;;;20.30;90.80;;;;;;5068882;28;20189;-69
2023/05/14 11:07:45;;;;;;;7.60;2.60;;;20.30;91.80;;;;;;5054051;28;20583;-60
2023/05/14 11:10:20;;;;;;;5.97;2.50;;;20.40;92.00;;;;;;5071079;28;20183;-60
2023/05/14 11:12:47;;;;;;;5.03;2.73;;;20.40;90.50;;;;;;5069578;28;20694;-60
2023/05/14 11:15:22;;;;;;;5.37;2.70;;;20.50;91.40;;;;;;5067953;28;20183;-60
2023/05/14 11:17:50;;;;;;;4.73;2.30;;;20.50;91.30;;;;;;5034690;28;20180;-60
2023/05/14 11:20:17;;;;;;;3.53;2.53;;;20.50;92.50;;;;;;5067778;28;20165;-60
2023/05/14 11:22:43;;;;;;;2.40;2.20;;;20.60;93.30;;;;;;5067619;28;20168;-60
2023/05/14 11:25:14;;;;;;;2.53;2.20;;;20.60;94.50;;;;;;5051044;28;20278;-60
2023/05/14 11:27:41;;;;;;;3.00;2.70;;;20.70;95.30;;;;;;5067511;28;20188;-60
2023/05/14 11:30:20;;;;;;;3.70;3.40;;;20.80;91.90;;;;;;5066152;28;20168;-59
2023/05/14 11:32:48;;;;;;;5.10;2.43;;;20.80;92.20;;;;;;5067953;28;20251;-60
2023/05/14 11:35:15;;;;;;;3.40;2.47;;;20.80;88.90;;;;;;5066960;28;20176;-60
2023/05/14 11:37:41;;;;;;;3.43;2.53;;;20.90;90.70;;;;;;5066503;28;20485;-61
2023/05/14 11:40:13;;;;;;;2.33;2.10;;;21.10;91.30;;;;;;5064376;28;20797;-60
2023/05/14 11:42:39;;;;;;;5.53;2.40;;;21.10;90.30;;;;;;5062762;28;20335;-59
2023/05/14 11:45:05;;;;;;;3.80;2.50;;;21.20;86.80;;;;;;5060801;28;20350;-61
2023/05/14 11:47:32;;;;;;;3.77;3.10;;;21.30;87.60;;;;;;5060957;28;20251;-60
2023/05/14 11:49:59;;;;;;;3.83;3.33;;;21.40;91.00;;;;;;5059865;28;20161;-62
2023/05/14 11:52:25;;;;;;;3.60;2.60;;;21.40;92.70;;;;;;5062895;28;20309;-62
2023/05/14 11:54:51;;;;;;;4.23;2.70;;;21.40;81.50;;;;;;5063658;28;20252;-61
2023/05/14 11:57:21;;;;;;;5.33;2.73;;;21.30;75.30;;;;;;5064136;28;20267;-61
2023/05/14 11:59:48;;;;;;;6.87;2.70;;;21.40;77.40;;;;;;5060844;28;20267;-60
2023/05/14 12:02:17;;;;;;;4.77;2.87;;;21.30;76.60;;;;;;5061673;28;20172;-61
2023/05/14 12:04:48;;;;;;;4.63;2.70;;;21.40;80.80;;;;;;5061469;28;20184;-60
2023/05/14 12:07:15;;;;;;;4.83;2.73;;;21.50;81.70;;;;;;5061540;28;20184;-60
2023/05/14 12:09:49;;;;;;;4.17;2.40;;;21.70;81.40;;;;;;5061135;28;20164;-60
2023/05/14 12:12:21;;;;;;;3.87;2.53;;;21.90;78.30;;;;;;5061097;28;20172;-61
2023/05/14 12:14:48;;;;;;;4.93;2.97;;;21.90;72.90;;;;;;5060890;28;20164;-60
2023/05/14 12:17:21;;;;;;;2.50;2.30;;;21.80;70.70;;;;;;5062390;28;20164;-60
2023/05/14 12:19:49;;;;;;;3.83;2.73;;;21.80;73.30;;;;;;5063237;28;20169;-58
2023/05/14 12:22:21;;;;;;;13.00;3.10;;;21.90;73.90;;;;;;5065444;28;21057;-60
2023/05/14 12:24:54;;;;;;;2.80;2.37;;;22.00;71.60;;;;;;5065036;28;20877;-60
2023/05/14 12:27:25;;;;;;;5.97;3.10;;;22.00;67.80;;;;;;5064726;28;20176;-60
2023/05/14 12:30:07;;;;;;;7.33;2.43;;;22.20;72.00;;;;;;5063393;28;20510;-60
2023/05/14 12:32:40;;;;;;;4.37;3.10;;;22.30;71.60;;;;;;5066509;28;20172;-60
2023/05/14 12:35:11;;;;;;;3.77;2.80;;;22.40;71.60;;;;;;5066948;28;20572;-59
2023/05/14 12:37:41;;;;;;;7.80;3.27;;;22.40;70.50;;;;;;5066831;28;20596;-60
2023/05/14 12:40:13;;;;;;;5.50;2.80;;;22.40;69.30;;;;;;5069039;28;20197;-60
2023/05/14 12:42:42;;;;;;;2.57;2.37;;;22.50;70.90;;;;;;5068872;28;20382;-60
2023/05/14 12:45:12;;;;;;;3.50;2.90;;;22.60;72.00;;;;;;5067449;28;20554;-60
2023/05/14 12:47:40;;;;;;;3.93;2.80;;;22.70;69.80;;;;;;5067390;28;20176;-60